Terminal Aerodrome Forecast
Issued by NWS

Home | Current Version | Previous Version | Text Only | Print | Product List | Glossary On
Versions: 1 2 3 4 5 6 7 8 9 10 11 12
000
FTUS44 KLZK 111729
TAFPBF
TAF
KPBF 111729Z 1118/1218 23010KT P6SM SKC
     FM112000 24010G15KT P6SM FEW250
     FM120100 29008KT P6SM SCT250
     FM121300 33009KT P6SM SKC=

USA.gov is the U.S. government's official web portal to all federal, state and local government web resources and services.